sensor_id;sensor_type;location;lat;lon;timestamp;temperature;humidity
37658;DHT22;23500;53.268;8.308;2022-07-23T00:00:52;21.60;68.20
37658;DHT22;23500;53.268;8.308;2022-07-23T00:03:18;21.60;68.30
37658;DHT22;23500;53.268;8.308;2022-07-23T00:05:43;21.60;68.40
37658;DHT22;23500;53.268;8.308;2022-07-23T00:08:09;21.60;68.50
37658;DHT22;23500;53.268;8.308;2022-07-23T00:10:35;21.60;68.50
37658;DHT22;23500;53.268;8.308;2022-07-23T00:13:01;21.60;68.60
37658;DHT22;23500;53.268;8.308;2022-07-23T00:15:26;21.60;68.60
37658;DHT22;23500;53.268;8.308;2022-07-23T00:17:52;21.50;68.50
37658;DHT22;23500;53.268;8.308;2022-07-23T00:20:18;21.50;68.30
37658;DHT22;23500;53.268;8.308;2022-07-23T00:22:53;21.50;68.40
37658;DHT22;23500;53.268;8.308;2022-07-23T00:25:23;21.50;68.50
37658;DHT22;23500;53.268;8.308;2022-07-23T00:27:49;21.50;68.40
37658;DHT22;23500;53.268;8.308;2022-07-23T00:30:14;21.50;68.60
37658;DHT22;23500;53.268;8.308;2022-07-23T00:32:47;21.50;68.60
37658;DHT22;23500;53.268;8.308;2022-07-23T00:35:13;21.50;69.30
37658;DHT22;23500;53.268;8.308;2022-07-23T00:37:39;21.50;68.60
37658;DHT22;23500;53.268;8.308;2022-07-23T00:40:05;21.50;68.60
37658;DHT22;23500;53.268;8.308;2022-07-23T00:42:33;21.50;69.00
37658;DHT22;23500;53.268;8.308;2022-07-23T00:44:59;21.50;69.00
37658;DHT22;23500;53.268;8.308;2022-07-23T00:47:25;21.50;68.90
37658;DHT22;23500;53.268;8.308;2022-07-23T00:49:51;21.50;68.80
37658;DHT22;23500;53.268;8.308;2022-07-23T00:52:17;21.40;68.70
37658;DHT22;23500;53.268;8.308;2022-07-23T00:54:42;21.40;68.60
37658;DHT22;23500;53.268;8.308;2022-07-23T00:57:09;21.40;68.40
37658;DHT22;23500;53.268;8.308;2022-07-23T00:59:34;21.40;68.40
37658;DHT22;23500;53.268;8.308;2022-07-23T01:02:00;21.40;68.50
37658;DHT22;23500;53.268;8.308;2022-07-23T01:04:26;21.40;68.60
37658;DHT22;23500;53.268;8.308;2022-07-23T01:06:52;21.40;68.50
37658;DHT22;23500;53.268;8.308;2022-07-23T01:09:18;21.40;68.60
37658;DHT22;23500;53.268;8.308;2022-07-23T01:11:43;21.40;68.70
37658;DHT22;23500;53.268;8.308;2022-07-23T01:14:10;21.40;68.70
37658;DHT22;23500;53.268;8.308;2022-07-23T01:16:36;21.40;68.60
37658;DHT22;23500;53.268;8.308;2022-07-23T01:19:02;21.40;68.70
37658;DHT22;23500;53.268;8.308;2022-07-23T01:21:44;21.40;68.90
37658;DHT22;23500;53.268;8.308;2022-07-23T01:24:10;21.40;68.90
37658;DHT22;23500;53.268;8.308;2022-07-23T01:26:38;21.40;68.90
37658;DHT22;23500;53.268;8.308;2022-07-23T01:29:04;21.40;69.00
37658;DHT22;23500;53.268;8.308;2022-07-23T01:31:30;21.40;68.80
37658;DHT22;23500;53.268;8.308;2022-07-23T01:33:56;21.30;68.70
37658;DHT22;23500;53.268;8.308;2022-07-23T01:36:22;21.30;68.80
37658;DHT22;23500;53.268;8.308;2022-07-23T01:38:49;21.30;68.90
37658;DHT22;23500;53.268;8.308;2022-07-23T01:41:16;21.30;69.00
37658;DHT22;23500;53.268;8.308;2022-07-23T01:43:42;21.30;68.80
37658;DHT22;23500;53.268;8.308;2022-07-23T01:46:07;21.30;68.80
37658;DHT22;23500;53.268;8.308;2022-07-23T01:48:33;21.30;68.80
37658;DHT22;23500;53.268;8.308;2022-07-23T01:50:59;21.30;68.80
37658;DHT22;23500;53.268;8.308;2022-07-23T01:53:25;21.30;69.00
37658;DHT22;23500;53.268;8.308;2022-07-23T01:55:50;21.30;69.00
37658;DHT22;23500;53.268;8.308;2022-07-23T01:58:16;21.30;68.90
37658;DHT22;23500;53.268;8.308;2022-07-23T02:00:41;21.30;68.80
37658;DHT22;23500;53.268;8.308;2022-07-23T02:03:07;21.20;69.10
37658;DHT22;23500;53.268;8.308;2022-07-23T02:05:33;21.20;69.00
37658;DHT22;23500;53.268;8.308;2022-07-23T02:07:59;21.20;69.20
37658;DHT22;23500;53.268;8.308;2022-07-23T02:10:26;21.20;69.20
37658;DHT22;23500;53.268;8.308;2022-07-23T02:12:52;21.20;69.30
37658;DHT22;23500;53.268;8.308;2022-07-23T02:15:17;21.20;69.40
37658;DHT22;23500;53.268;8.308;2022-07-23T02:17:43;21.20;69.50
37658;DHT22;23500;53.268;8.308;2022-07-23T02:20:10;21.20;69.50
37658;DHT22;23500;53.268;8.308;2022-07-23T02:22:36;21.20;69.30
37658;DHT22;23500;53.268;8.308;2022-07-23T02:25:03;21.20;69.30
37658;DHT22;23500;53.268;8.308;2022-07-23T02:27:29;21.20;69.50
37658;DHT22;23500;53.268;8.308;2022-07-23T02:29:54;21.20;69.50
37658;DHT22;23500;53.268;8.308;2022-07-23T02:32:20;21.20;69.50
37658;DHT22;23500;53.268;8.308;2022-07-23T02:34:49;21.20;69.40
37658;DHT22;23500;53.268;8.308;2022-07-23T02:37:14;21.20;69.60
37658;DHT22;23500;53.268;8.308;2022-07-23T02:39:40;21.20;69.70
37658;DHT22;23500;53.268;8.308;2022-07-23T02:42:06;21.20;69.80
37658;DHT22;23500;53.268;8.308;2022-07-23T02:44:32;21.20;69.90
37658;DHT22;23500;53.268;8.308;2022-07-23T02:46:57;21.20;69.90
37658;DHT22;23500;53.268;8.308;2022-07-23T02:49:23;21.10;69.70
37658;DHT22;23500;53.268;8.308;2022-07-23T02:51:49;21.10;69.70
37658;DHT22;23500;53.268;8.308;2022-07-23T02:54:14;21.10;69.80
37658;DHT22;23500;53.268;8.308;2022-07-23T02:56:40;21.10;69.80
37658;DHT22;23500;53.268;8.308;2022-07-23T02:59:06;21.10;69.80
37658;DHT22;23500;53.268;8.308;2022-07-23T03:01:31;21.10;69.80
37658;DHT22;23500;53.268;8.308;2022-07-23T03:03:57;21.10;69.80
37658;DHT22;23500;53.268;8.308;2022-07-23T03:06:23;21.10;69.70
37658;DHT22;23500;53.268;8.308;2022-07-23T03:08:48;21.10;69.80
37658;DHT22;23500;53.268;8.308;2022-07-23T03:11:14;21.10;69.80
37658;DHT22;23500;53.268;8.308;2022-07-23T03:13:40;21.10;69.80
37658;DHT22;23500;53.268;8.308;2022-07-23T03:16:06;21.10;69.90
37658;DHT22;23500;53.268;8.308;2022-07-23T03:18:33;21.10;70.00
37658;DHT22;23500;53.268;8.308;2022-07-23T03:20:59;21.10;70.10
37658;DHT22;23500;53.268;8.308;2022-07-23T03:23:25;21.10;69.80
37658;DHT22;23500;53.268;8.308;2022-07-23T03:25:51;21.10;70.00
37658;DHT22;23500;53.268;8.308;2022-07-23T03:28:18;21.10;69.80
37658;DHT22;23500;53.268;8.308;2022-07-23T03:30:44;21.10;69.90
37658;DHT22;23500;53.268;8.308;2022-07-23T03:33:12;21.10;69.80
37658;DHT22;23500;53.268;8.308;2022-07-23T03:35:38;21.10;69.90
37658;DHT22;23500;53.268;8.308;2022-07-23T03:38:04;21.20;69.80
37658;DHT22;23500;53.268;8.308;2022-07-23T03:40:30;21.20;69.50
37658;DHT22;23500;53.268;8.308;2022-07-23T03:42:55;21.20;69.60
37658;DHT22;23500;53.268;8.308;2022-07-23T03:45:21;21.10;69.60
37658;DHT22;23500;53.268;8.308;2022-07-23T03:47:46;21.10;69.40
37658;DHT22;23500;53.268;8.308;2022-07-23T03:50:12;21.10;69.30
37658;DHT22;23500;53.268;8.308;2022-07-23T03:52:38;21.10;69.20
37658;DHT22;23500;53.268;8.308;2022-07-23T03:55:04;21.10;69.20
37658;DHT22;23500;53.268;8.308;2022-07-23T03:57:30;21.10;69.30
37658;DHT22;23500;53.268;8.308;2022-07-23T03:59:56;21.10;69.40
37658;DHT22;23500;53.268;8.308;2022-07-23T04:02:22;21.10;69.40
37658;DHT22;23500;53.268;8.308;2022-07-23T04:04:47;21.10;69.30
37658;DHT22;23500;53.268;8.308;2022-07-23T04:07:13;21.00;69.30
37658;DHT22;23500;53.268;8.308;2022-07-23T04:09:39;21.00;69.50
37658;DHT22;23500;53.268;8.308;2022-07-23T04:12:06;21.00;69.70
37658;DHT22;23500;53.268;8.308;2022-07-23T04:14:33;21.00;69.70
37658;DHT22;23500;53.268;8.308;2022-07-23T04:16:59;21.00;69.60
37658;DHT22;23500;53.268;8.308;2022-07-23T04:19:25;21.00;69.60
37658;DHT22;23500;53.268;8.308;2022-07-23T04:21:51;21.00;69.70
37658;DHT22;23500;53.268;8.308;2022-07-23T04:24:17;21.00;70.40
37658;DHT22;23500;53.268;8.308;2022-07-23T04:26:43;21.00;69.70
37658;DHT22;23500;53.268;8.308;2022-07-23T04:29:09;21.00;69.60
37658;DHT22;23500;53.268;8.308;2022-07-23T04:31:35;21.00;69.50
37658;DHT22;23500;53.268;8.308;2022-07-23T04:34:01;21.00;69.40
37658;DHT22;23500;53.268;8.308;2022-07-23T04:36:27;20.90;70.10
37658;DHT22;23500;53.268;8.308;2022-07-23T04:38:53;20.90;69.60
37658;DHT22;23500;53.268;8.308;2022-07-23T04:41:19;20.90;69.60
37658;DHT22;23500;53.268;8.308;2022-07-23T04:43:45;20.90;69.50
37658;DHT22;23500;53.268;8.308;2022-07-23T04:46:11;20.90;69.50
37658;DHT22;23500;53.268;8.308;2022-07-23T04:48:37;20.90;69.50
37658;DHT22;23500;53.268;8.308;2022-07-23T04:51:03;20.90;69.30
37658;DHT22;23500;53.268;8.308;2022-07-23T04:53:28;20.90;69.30
37658;DHT22;23500;53.268;8.308;2022-07-23T04:55:54;20.90;69.40
37658;DHT22;23500;53.268;8.308;2022-07-23T04:58:20;20.90;69.30
37658;DHT22;23500;53.268;8.308;2022-07-23T05:00:46;20.90;69.30
37658;DHT22;23500;53.268;8.308;2022-07-23T05:03:12;21.00;69.30
37658;DHT22;23500;53.268;8.308;2022-07-23T05:05:38;21.00;69.40
37658;DHT22;23500;53.268;8.308;2022-07-23T05:08:04;21.00;68.80
37658;DHT22;23500;53.268;8.308;2022-07-23T05:10:29;21.10;68.70
37658;DHT22;23500;53.268;8.308;2022-07-23T05:12:55;21.10;68.60
37658;DHT22;23500;53.268;8.308;2022-07-23T05:15:21;21.20;68.70
37658;DHT22;23500;53.268;8.308;2022-07-23T05:17:47;21.30;68.80
37658;DHT22;23500;53.268;8.308;2022-07-23T05:20:12;21.30;68.80
37658;DHT22;23500;53.268;8.308;2022-07-23T05:22:39;21.40;68.80
37658;DHT22;23500;53.268;8.308;2022-07-23T05:25:05;21.30;68.70
37658;DHT22;23500;53.268;8.308;2022-07-23T05:27:31;21.40;68.50
37658;DHT22;23500;53.268;8.308;2022-07-23T05:29:57;21.40;68.40
37658;DHT22;23500;53.268;8.308;2022-07-23T05:32:22;21.40;68.10
37658;DHT22;23500;53.268;8.308;2022-07-23T05:34:48;21.40;68.20
37658;DHT22;23500;53.268;8.308;2022-07-23T05:37:14;21.40;68.00
37658;DHT22;23500;53.268;8.308;2022-07-23T05:39:39;21.40;68.00
37658;DHT22;23500;53.268;8.308;2022-07-23T05:42:05;21.50;68.00
37658;DHT22;23500;53.268;8.308;2022-07-23T05:44:31;21.50;68.60
37658;DHT22;23500;53.268;8.308;2022-07-23T05:46:56;21.60;68.50
37658;DHT22;23500;53.268;8.308;2022-07-23T05:49:22;21.60;69.10
37658;DHT22;23500;53.268;8.308;2022-07-23T05:51:48;21.60;68.60
37658;DHT22;23500;53.268;8.308;2022-07-23T05:54:13;21.70;68.50
37658;DHT22;23500;53.268;8.308;2022-07-23T05:56:39;21.70;68.80
37658;DHT22;23500;53.268;8.308;2022-07-23T05:59:05;21.80;69.20
37658;DHT22;23500;53.268;8.308;2022-07-23T06:01:31;21.80;69.10
37658;DHT22;23500;53.268;8.308;2022-07-23T06:03:57;21.90;69.10
37658;DHT22;23500;53.268;8.308;2022-07-23T06:06:22;21.90;68.90
37658;DHT22;23500;53.268;8.308;2022-07-23T06:08:48;21.90;68.40
37658;DHT22;23500;53.268;8.308;2022-07-23T06:11:14;21.90;68.80
37658;DHT22;23500;53.268;8.308;2022-07-23T06:13:39;21.90;68.70
37658;DHT22;23500;53.268;8.308;2022-07-23T06:16:05;21.90;68.60
37658;DHT22;23500;53.268;8.308;2022-07-23T06:18:31;21.90;68.70
37658;DHT22;23500;53.268;8.308;2022-07-23T06:20:56;21.90;68.80
37658;DHT22;23500;53.268;8.308;2022-07-23T06:23:22;21.90;69.10
37658;DHT22;23500;53.268;8.308;2022-07-23T06:25:48;21.90;69.30
37658;DHT22;23500;53.268;8.308;2022-07-23T06:28:13;21.80;69.30
37658;DHT22;23500;53.268;8.308;2022-07-23T06:30:39;21.90;69.40
37658;DHT22;23500;53.268;8.308;2022-07-23T06:33:05;21.90;69.40
37658;DHT22;23500;53.268;8.308;2022-07-23T06:35:31;21.90;69.30
37658;DHT22;23500;53.268;8.308;2022-07-23T06:37:56;21.80;69.40
37658;DHT22;23500;53.268;8.308;2022-07-23T06:40:22;21.80;69.30
37658;DHT22;23500;53.268;8.308;2022-07-23T06:42:47;21.90;69.40
37658;DHT22;23500;53.268;8.308;2022-07-23T06:45:13;21.80;69.40
37658;DHT22;23500;53.268;8.308;2022-07-23T06:47:39;21.80;69.30
37658;DHT22;23500;53.268;8.308;2022-07-23T06:50:06;21.90;67.60
37658;DHT22;23500;53.268;8.308;2022-07-23T06:52:32;21.80;67.60
37658;DHT22;23500;53.268;8.308;2022-07-23T06:54:57;21.80;67.60
37658;DHT22;23500;53.268;8.308;2022-07-23T06:57:23;21.80;67.80
37658;DHT22;23500;53.268;8.308;2022-07-23T06:59:51;21.80;67.20
37658;DHT22;23500;53.268;8.308;2022-07-23T07:02:16;21.80;67.50
37658;DHT22;23500;53.268;8.308;2022-07-23T07:04:42;21.70;67.50
37658;DHT22;23500;53.268;8.308;2022-07-23T07:07:08;21.80;67.70
37658;DHT22;23500;53.268;8.308;2022-07-23T07:09:33;21.80;67.60
37658;DHT22;23500;53.268;8.308;2022-07-23T07:11:59;21.80;67.80
37658;DHT22;23500;53.268;8.308;2022-07-23T07:14:25;21.70;67.90
37658;DHT22;23500;53.268;8.308;2022-07-23T07:16:50;21.80;67.60
37658;DHT22;23500;53.268;8.308;2022-07-23T07:19:16;21.80;67.50
37658;DHT22;23500;53.268;8.308;2022-07-23T07:21:42;21.70;67.50
37658;DHT22;23500;53.268;8.308;2022-07-23T07:24:07;21.80;67.40
37658;DHT22;23500;53.268;8.308;2022-07-23T07:26:34;21.80;67.40
37658;DHT22;23500;53.268;8.308;2022-07-23T07:28:59;21.80;68.90
37658;DHT22;23500;53.268;8.308;2022-07-23T07:31:25;21.80;69.30
37658;DHT22;23500;53.268;8.308;2022-07-23T07:33:51;21.80;69.20
37658;DHT22;23500;53.268;8.308;2022-07-23T07:36:17;21.90;69.30
37658;DHT22;23500;53.268;8.308;2022-07-23T07:38:43;21.90;69.20
37658;DHT22;23500;53.268;8.308;2022-07-23T07:41:08;21.90;68.20
37658;DHT22;23500;53.268;8.308;2022-07-23T07:43:35;21.90;67.70
37658;DHT22;23500;53.268;8.308;2022-07-23T07:46:03;22.00;67.80
37658;DHT22;23500;53.268;8.308;2022-07-23T07:48:29;22.00;68.10
37658;DHT22;23500;53.268;8.308;2022-07-23T07:50:54;22.00;68.30
37658;DHT22;23500;53.268;8.308;2022-07-23T07:53:20;22.00;68.00
37658;DHT22;23500;53.268;8.308;2022-07-23T07:55:46;22.10;68.10
37658;DHT22;23500;53.268;8.308;2022-07-23T07:58:12;22.10;67.90
37658;DHT22;23500;53.268;8.308;2022-07-23T08:00:37;22.10;67.80
37658;DHT22;23500;53.268;8.308;2022-07-23T08:03:03;22.10;67.50
37658;DHT22;23500;53.268;8.308;2022-07-23T08:05:30;22.10;67.70
37658;DHT22;23500;53.268;8.308;2022-07-23T08:07:56;22.20;67.70
37658;DHT22;23500;53.268;8.308;2022-07-23T08:10:22;22.20;67.30
37658;DHT22;23500;53.268;8.308;2022-07-23T08:12:50;22.20;67.10
37658;DHT22;23500;53.268;8.308;2022-07-23T08:15:18;22.20;67.30
37658;DHT22;23500;53.268;8.308;2022-07-23T08:17:45;22.20;66.60
37658;DHT22;23500;53.268;8.308;2022-07-23T08:20:13;22.20;66.90
37658;DHT22;23500;53.268;8.308;2022-07-23T08:22:53;22.20;66.50
37658;DHT22;23500;53.268;8.308;2022-07-23T08:25:24;22.20;66.90
37658;DHT22;23500;53.268;8.308;2022-07-23T08:27:50;22.20;66.80
37658;DHT22;23500;53.268;8.308;2022-07-23T08:30:17;22.20;66.30
37658;DHT22;23500;53.268;8.308;2022-07-23T08:32:53;22.20;66.00
37658;DHT22;23500;53.268;8.308;2022-07-23T08:35:27;22.20;65.80
37658;DHT22;23500;53.268;8.308;2022-07-23T08:37:54;22.20;66.30
37658;DHT22;23500;53.268;8.308;2022-07-23T08:40:20;22.20;66.60
37658;DHT22;23500;53.268;8.308;2022-07-23T08:42:50;22.20;66.50
37658;DHT22;23500;53.268;8.308;2022-07-23T08:45:18;22.20;64.80
37658;DHT22;23500;53.268;8.308;2022-07-23T08:47:47;22.20;65.50
37658;DHT22;23500;53.268;8.308;2022-07-23T08:50:13;22.20;66.30
37658;DHT22;23500;53.268;8.308;2022-07-23T08:52:40;22.20;67.10
37658;DHT22;23500;53.268;8.308;2022-07-23T08:55:06;22.20;67.20
37658;DHT22;23500;53.268;8.308;2022-07-23T08:57:32;22.20;67.30
37658;DHT22;23500;53.268;8.308;2022-07-23T08:59:58;22.20;67.30
37658;DHT22;23500;53.268;8.308;2022-07-23T09:02:23;22.30;67.40
37658;DHT22;23500;53.268;8.308;2022-07-23T09:04:49;22.20;67.10
37658;DHT22;23500;53.268;8.308;2022-07-23T09:07:15;22.20;66.90
37658;DHT22;23500;53.268;8.308;2022-07-23T09:09:40;22.20;66.70
37658;DHT22;23500;53.268;8.308;2022-07-23T09:12:09;22.30;66.60
37658;DHT22;23500;53.268;8.308;2022-07-23T09:14:40;22.20;66.70
37658;DHT22;23500;53.268;8.308;2022-07-23T09:17:16;22.20;66.70
37658;DHT22;23500;53.268;8.308;2022-07-23T09:19:43;22.20;66.70
37658;DHT22;23500;53.268;8.308;2022-07-23T09:22:22;22.20;66.40
37658;DHT22;23500;53.268;8.308;2022-07-23T09:30:15;22.10;65.70
37658;DHT22;23500;53.268;8.308;2022-07-23T09:32:42;22.10;65.50
37658;DHT22;23500;53.268;8.308;2022-07-23T09:35:08;22.10;65.50
37658;DHT22;23500;53.268;8.308;2022-07-23T09:37:34;22.10;65.40
37658;DHT22;23500;53.268;8.308;2022-07-23T09:40:09;22.10;65.30
37658;DHT22;23500;53.268;8.308;2022-07-23T09:42:38;22.10;65.20
37658;DHT22;23500;53.268;8.308;2022-07-23T09:45:10;22.10;65.00
37658;DHT22;23500;53.268;8.308;2022-07-23T09:47:37;22.10;64.80
37658;DHT22;23500;53.268;8.308;2022-07-23T09:50:10;22.10;64.50
37658;DHT22;23500;53.268;8.308;2022-07-23T09:52:49;22.10;64.40
37658;DHT22;23500;53.268;8.308;2022-07-23T09:55:16;22.10;64.40
37658;DHT22;23500;53.268;8.308;2022-07-23T09:57:42;22.10;64.40
37658;DHT22;23500;53.268;8.308;2022-07-23T10:00:11;22.10;64.40
37658;DHT22;23500;53.268;8.308;2022-07-23T10:02:38;22.10;64.50
37658;DHT22;23500;53.268;8.308;2022-07-23T10:05:04;22.10;64.50
37658;DHT22;23500;53.268;8.308;2022-07-23T10:07:34;22.10;64.40
37658;DHT22;23500;53.268;8.308;2022-07-23T10:10:02;22.10;64.30
37658;DHT22;23500;53.268;8.308;2022-07-23T10:12:28;22.20;64.40
37658;DHT22;23500;53.268;8.308;2022-07-23T10:15:11;22.20;64.50
37658;DHT22;23500;53.268;8.308;2022-07-23T10:17:37;22.20;64.60
37658;DHT22;23500;53.268;8.308;2022-07-23T10:20:04;22.20;64.30
37658;DHT22;23500;53.268;8.308;2022-07-23T10:22:40;22.20;64.60
37658;DHT22;23500;53.268;8.308;2022-07-23T10:25:30;22.20;64.70
37658;DHT22;23500;53.268;8.308;2022-07-23T10:28:33;22.30;64.80
37658;DHT22;23500;53.268;8.308;2022-07-23T10:34:14;22.20;64.90
37658;DHT22;23500;53.268;8.308;2022-07-23T10:37:04;22.20;64.90
37658;DHT22;23500;53.268;8.308;2022-07-23T10:39:33;22.20;65.00
37658;DHT22;23500;53.268;8.308;2022-07-23T10:42:14;22.20;65.30
37658;DHT22;23500;53.268;8.308;2022-07-23T10:44:48;22.20;65.30
37658;DHT22;23500;53.268;8.308;2022-07-23T10:47:29;22.20;65.40
37658;DHT22;23500;53.268;8.308;2022-07-23T10:50:24;22.20;65.20
37658;DHT22;23500;53.268;8.308;2022-07-23T10:58:03;22.20;65.30
37658;DHT22;23500;53.268;8.308;2022-07-23T11:00:31;22.20;65.30
37658;DHT22;23500;53.268;8.308;2022-07-23T11:02:59;22.20;65.10
37658;DHT22;23500;53.268;8.308;2022-07-23T11:05:43;22.20;65.00
37658;DHT22;23500;53.268;8.308;2022-07-23T11:10:43;22.20;64.80
37658;DHT22;23500;53.268;8.308;2022-07-23T11:24:05;22.30;64.80
37658;DHT22;23500;53.268;8.308;2022-07-23T11:29:38;22.30;64.30
37658;DHT22;23500;53.268;8.308;2022-07-23T11:34:53;22.20;63.90
37658;DHT22;23500;53.268;8.308;2022-07-23T11:37:29;22.20;63.90
37658;DHT22;23500;53.268;8.308;2022-07-23T11:39:57;22.30;64.00
37658;DHT22;23500;53.268;8.308;2022-07-23T11:42:24;22.20;63.80
37658;DHT22;23500;53.268;8.308;2022-07-23T11:44:50;22.30;63.80
37658;DHT22;23500;53.268;8.308;2022-07-23T11:47:24;22.30;63.70
37658;DHT22;23500;53.268;8.308;2022-07-23T11:49:58;22.30;63.60
37658;DHT22;23500;53.268;8.308;2022-07-23T11:52:25;22.30;63.40
37658;DHT22;23500;53.268;8.308;2022-07-23T11:54:56;22.30;63.30
37658;DHT22;23500;53.268;8.308;2022-07-23T11:57:31;22.30;63.30
37658;DHT22;23500;53.268;8.308;2022-07-23T12:02:37;22.30;63.60
37658;DHT22;23500;53.268;8.308;2022-07-23T12:05:04;22.30;63.40
37658;DHT22;23500;53.268;8.308;2022-07-23T12:07:41;22.30;63.20
37658;DHT22;23500;53.268;8.308;2022-07-23T12:12:45;22.30;63.40
37658;DHT22;23500;53.268;8.308;2022-07-23T12:15:13;22.30;63.60
37658;DHT22;23500;53.268;8.308;2022-07-23T12:17:41;22.30;63.50
37658;DHT22;23500;53.268;8.308;2022-07-23T12:20:11;22.30;63.50
37658;DHT22;23500;53.268;8.308;2022-07-23T12:22:40;22.30;63.40
37658;DHT22;23500;53.268;8.308;2022-07-23T12:25:12;22.40;63.60
37658;DHT22;23500;53.268;8.308;2022-07-23T12:27:38;22.30;63.30
37658;DHT22;23500;53.268;8.308;2022-07-23T12:30:22;22.40;63.50
37658;DHT22;23500;53.268;8.308;2022-07-23T12:32:50;22.40;63.60
37658;DHT22;23500;53.268;8.308;2022-07-23T12:35:16;22.30;63.40
37658;DHT22;23500;53.268;8.308;2022-07-23T12:37:45;22.40;63.60
37658;DHT22;23500;53.268;8.308;2022-07-23T12:40:30;22.40;63.80
37658;DHT22;23500;53.268;8.308;2022-07-23T12:43:06;22.40;64.20
37658;DHT22;23500;53.268;8.308;2022-07-23T12:45:47;22.40;63.50
37658;DHT22;23500;53.268;8.308;2022-07-23T12:48:28;22.40;63.60
37658;DHT22;23500;53.268;8.308;2022-07-23T12:51:15;22.40;63.80
37658;DHT22;23500;53.268;8.308;2022-07-23T12:53:43;22.40;63.70
37658;DHT22;23500;53.268;8.308;2022-07-23T12:56:15;22.40;63.70
37658;DHT22;23500;53.268;8.308;2022-07-23T12:58:56;22.40;63.80
37658;DHT22;23500;53.268;8.308;2022-07-23T13:04:14;22.40;63.80
37658;DHT22;23500;53.268;8.308;2022-07-23T13:06:45;22.40;63.60
37658;DHT22;23500;53.268;8.308;2022-07-23T13:09:23;22.40;63.70
37658;DHT22;23500;53.268;8.308;2022-07-23T13:11:49;22.40;63.80
37658;DHT22;23500;53.268;8.308;2022-07-23T13:14:16;22.40;63.80
37658;DHT22;23500;53.268;8.308;2022-07-23T13:16:43;22.40;63.80
37658;DHT22;23500;53.268;8.308;2022-07-23T13:19:09;22.40;63.80
37658;DHT22;23500;53.268;8.308;2022-07-23T13:21:35;22.40;63.90
37658;DHT22;23500;53.268;8.308;2022-07-23T13:24:00;22.40;63.80
37658;DHT22;23500;53.268;8.308;2022-07-23T13:26:27;22.40;63.90
37658;DHT22;23500;53.268;8.308;2022-07-23T13:28:53;22.40;63.70
37658;DHT22;23500;53.268;8.308;2022-07-23T13:31:19;22.40;63.70
37658;DHT22;23500;53.268;8.308;2022-07-23T13:33:45;22.40;63.80
37658;DHT22;23500;53.268;8.308;2022-07-23T13:36:11;22.50;64.00
37658;DHT22;23500;53.268;8.308;2022-07-23T13:38:37;22.50;64.10
37658;DHT22;23500;53.268;8.308;2022-07-23T13:41:04;22.50;63.80
37658;DHT22;23500;53.268;8.308;2022-07-23T13:43:30;22.50;63.90
37658;DHT22;23500;53.268;8.308;2022-07-23T13:45:56;22.50;63.90
37658;DHT22;23500;53.268;8.308;2022-07-23T13:48:21;22.50;64.00
37658;DHT22;23500;53.268;8.308;2022-07-23T13:50:48;22.50;63.90
37658;DHT22;23500;53.268;8.308;2022-07-23T13:53:18;22.50;63.90
37658;DHT22;23500;53.268;8.308;2022-07-23T13:55:44;22.50;63.80
37658;DHT22;23500;53.268;8.308;2022-07-23T13:58:11;22.50;63.80
37658;DHT22;23500;53.268;8.308;2022-07-23T14:00:41;22.50;63.80
37658;DHT22;23500;53.268;8.308;2022-07-23T14:03:07;22.50;63.90
37658;DHT22;23500;53.268;8.308;2022-07-23T14:05:32;22.50;63.90
37658;DHT22;23500;53.268;8.308;2022-07-23T14:07:58;22.50;64.10
37658;DHT22;23500;53.268;8.308;2022-07-23T14:10:24;22.50;64.00
37658;DHT22;23500;53.268;8.308;2022-07-23T14:12:51;22.50;64.00
37658;DHT22;23500;53.268;8.308;2022-07-23T14:15:18;22.50;64.10
37658;DHT22;23500;53.268;8.308;2022-07-23T14:17:45;22.50;64.00
37658;DHT22;23500;53.268;8.308;2022-07-23T14:20:12;22.50;64.10
37658;DHT22;23500;53.268;8.308;2022-07-23T14:22:38;22.50;64.00
37658;DHT22;23500;53.268;8.308;2022-07-23T14:25:05;22.50;63.90
37658;DHT22;23500;53.268;8.308;2022-07-23T14:27:31;22.50;63.90
37658;DHT22;23500;53.268;8.308;2022-07-23T14:29:58;22.50;64.00
37658;DHT22;23500;53.268;8.308;2022-07-23T14:32:24;22.50;64.00
37658;DHT22;23500;53.268;8.308;2022-07-23T14:34:50;22.50;64.10
37658;DHT22;23500;53.268;8.308;2022-07-23T14:37:16;22.50;64.30
37658;DHT22;23500;53.268;8.308;2022-07-23T14:39:43;22.50;64.20
37658;DHT22;23500;53.268;8.308;2022-07-23T14:42:09;22.50;64.20
37658;DHT22;23500;53.268;8.308;2022-07-23T14:44:35;22.50;64.30
37658;DHT22;23500;53.268;8.308;2022-07-23T14:47:02;22.50;64.20
37658;DHT22;23500;53.268;8.308;2022-07-23T14:49:30;22.50;64.30
37658;DHT22;23500;53.268;8.308;2022-07-23T14:51:56;22.50;64.30
37658;DHT22;23500;53.268;8.308;2022-07-23T14:54:22;22.50;64.30
37658;DHT22;23500;53.268;8.308;2022-07-23T14:56:48;22.50;64.30
37658;DHT22;23500;53.268;8.308;2022-07-23T14:59:14;22.50;64.30
37658;DHT22;23500;53.268;8.308;2022-07-23T15:01:40;22.50;64.30
37658;DHT22;23500;53.268;8.308;2022-07-23T15:04:07;22.50;64.30
37658;DHT22;23500;53.268;8.308;2022-07-23T15:06:33;22.50;64.30
37658;DHT22;23500;53.268;8.308;2022-07-23T15:08:59;22.50;64.40
37658;DHT22;23500;53.268;8.308;2022-07-23T15:11:26;22.40;64.40
37658;DHT22;23500;53.268;8.308;2022-07-23T15:13:52;22.40;64.40
37658;DHT22;23500;53.268;8.308;2022-07-23T15:16:18;22.40;64.40
37658;DHT22;23500;53.268;8.308;2022-07-23T15:18:44;22.50;64.50
37658;DHT22;23500;53.268;8.308;2022-07-23T15:21:09;22.50;64.50
37658;DHT22;23500;53.268;8.308;2022-07-23T15:23:35;22.50;64.50
37658;DHT22;23500;53.268;8.308;2022-07-23T15:26:03;22.40;64.50
37658;DHT22;23500;53.268;8.308;2022-07-23T15:28:29;22.40;64.50
37658;DHT22;23500;53.268;8.308;2022-07-23T15:30:54;22.40;64.40
37658;DHT22;23500;53.268;8.308;2022-07-23T15:33:20;22.40;64.40
37658;DHT22;23500;53.268;8.308;2022-07-23T15:35:46;22.40;64.40
37658;DHT22;23500;53.268;8.308;2022-07-23T15:38:13;22.50;64.60
37658;DHT22;23500;53.268;8.308;2022-07-23T15:40:38;22.50;64.50
37658;DHT22;23500;53.268;8.308;2022-07-23T15:43:04;22.50;64.60
37658;DHT22;23500;53.268;8.308;2022-07-23T15:45:33;22.40;64.50
37658;DHT22;23500;53.268;8.308;2022-07-23T15:47:58;22.40;64.50
37658;DHT22;23500;53.268;8.308;2022-07-23T15:50:24;22.50;64.50
37658;DHT22;23500;53.268;8.308;2022-07-23T15:52:50;22.40;64.50
37658;DHT22;23500;53.268;8.308;2022-07-23T15:55:15;22.50;64.50
37658;DHT22;23500;53.268;8.308;2022-07-23T15:57:41;22.40;64.50
37658;DHT22;23500;53.268;8.308;2022-07-23T16:00:07;22.40;64.50
37658;DHT22;23500;53.268;8.308;2022-07-23T16:02:34;22.40;64.40
37658;DHT22;23500;53.268;8.308;2022-07-23T16:05:00;22.50;64.50
37658;DHT22;23500;53.268;8.308;2022-07-23T16:07:26;22.40;64.50
37658;DHT22;23500;53.268;8.308;2022-07-23T16:09:52;22.40;64.50
37658;DHT22;23500;53.268;8.308;2022-07-23T16:12:17;22.40;64.50